sensor_id;sensor_type;location;lat;lon;timestamp;pressure;altitude;pressure_sealevel;temperature;humidity
6668;BME280;3370;47.712;9.082;2022-11-20T00:01:25;96652.53;;;4.68;100.00
6668;BME280;3370;47.712;9.082;2022-11-20T00:03:53;96656.72;;;4.69;100.00
6668;BME280;3370;47.712;9.082;2022-11-20T00:06:20;96645.75;;;4.67;100.00
6668;BME280;3370;47.712;9.082;2022-11-20T00:08:48;96658.66;;;4.61;100.00
6668;BME280;3370;47.712;9.082;2022-11-20T00:11:20;96654.41;;;4.61;100.00
6668;BME280;3370;47.712;9.082;2022-11-20T00:13:50;96663.00;;;4.57;100.00
6668;BME280;3370;47.712;9.082;2022-11-20T00:16:20;96666.25;;;4.63;100.00
6668;BME280;3370;47.712;9.082;2022-11-20T00:18:46;96663.81;;;4.58;100.00
6668;BME280;3370;47.712;9.082;2022-11-20T00:21:13;96661.16;;;4.63;100.00
6668;BME280;3370;47.712;9.082;2022-11-20T00:23:40;96666.16;;;4.66;100.00
6668;BME280;3370;47.712;9.082;2022-11-20T00:26:15;96663.53;;;4.69;100.00
6668;BME280;3370;47.712;9.082;2022-11-20T00:28:43;96660.31;;;4.62;100.00
6668;BME280;3370;47.712;9.082;2022-11-20T00:31:13;96659.31;;;4.68;100.00
6668;BME280;3370;47.712;9.082;2022-11-20T00:33:41;96666.91;;;4.69;100.00
6668;BME280;3370;47.712;9.082;2022-11-20T00:36:26;96669.38;;;4.72;100.00
6668;BME280;3370;47.712;9.082;2022-11-20T00:38:54;96669.34;;;4.74;100.00
6668;BME280;3370;47.712;9.082;2022-11-20T00:41:20;96672.75;;;4.73;100.00
6668;BME280;3370;47.712;9.082;2022-11-20T00:43:47;96668.38;;;4.78;100.00
6668;BME280;3370;47.712;9.082;2022-11-20T00:46:16;96672.94;;;4.67;100.00
6668;BME280;3370;47.712;9.082;2022-11-20T00:48:43;96681.44;;;4.66;100.00
6668;BME280;3370;47.712;9.082;2022-11-20T00:51:13;96676.59;;;4.56;100.00
6668;BME280;3370;47.712;9.082;2022-11-20T00:53:40;96675.34;;;4.71;100.00
6668;BME280;3370;47.712;9.082;2022-11-20T00:56:09;96672.28;;;4.58;100.00
6668;BME280;3370;47.712;9.082;2022-11-20T00:58:38;96671.44;;;4.59;100.00
6668;BME280;3370;47.712;9.082;2022-11-20T01:01:12;96675.34;;;4.71;100.00
6668;BME280;3370;47.712;9.082;2022-11-20T01:03:42;96685.31;;;4.80;100.00
6668;BME280;3370;47.712;9.082;2022-11-20T01:06:19;96686.88;;;4.85;100.00
6668;BME280;3370;47.712;9.082;2022-11-20T01:08:47;96681.59;;;4.91;100.00
6668;BME280;3370;47.712;9.082;2022-11-20T01:11:18;96678.19;;;4.92;100.00
6668;BME280;3370;47.712;9.082;2022-11-20T01:13:46;96685.31;;;5.09;97.34
6668;BME280;3370;47.712;9.082;2022-11-20T01:16:18;96681.78;;;4.85;97.08
6668;BME280;3370;47.712;9.082;2022-11-20T01:18:48;96687.22;;;4.72;98.84
6668;BME280;3370;47.712;9.082;2022-11-20T01:21:24;96685.44;;;4.74;99.88
6668;BME280;3370;47.712;9.082;2022-11-20T01:23:52;96687.09;;;4.77;98.67
6668;BME280;3370;47.712;9.082;2022-11-20T01:26:22;96681.19;;;4.75;99.79
6668;BME280;3370;47.712;9.082;2022-11-20T01:28:49;96694.66;;;4.78;99.71
6668;BME280;3370;47.712;9.082;2022-11-20T01:31:32;96685.88;;;4.90;99.06
6668;BME280;3370;47.712;9.082;2022-11-20T01:34:07;96687.00;;;4.80;98.33
6668;BME280;3370;47.712;9.082;2022-11-20T01:36:36;96694.75;;;4.77;99.97
6668;BME280;3370;47.712;9.082;2022-11-20T01:39:14;96688.03;;;5.04;96.35
6668;BME280;3370;47.712;9.082;2022-11-20T01:41:41;96687.13;;;4.75;98.16
6668;BME280;3370;47.712;9.082;2022-11-20T01:47:39;96694.03;;;4.72;100.00
6668;BME280;3370;47.712;9.082;2022-11-20T01:50:17;96702.19;;;4.83;97.34
6668;BME280;3370;47.712;9.082;2022-11-20T01:53:06;96706.16;;;4.62;98.62
6668;BME280;3370;47.712;9.082;2022-11-20T01:55:45;96701.25;;;4.56;98.69
6668;BME280;3370;47.712;9.082;2022-11-20T01:58:14;96703.00;;;4.54;98.70
6668;BME280;3370;47.712;9.082;2022-11-20T02:00:41;96698.22;;;4.41;99.57
6668;BME280;3370;47.712;9.082;2022-11-20T02:03:14;96699.03;;;4.42;100.00
6668;BME280;3370;47.712;9.082;2022-11-20T02:05:51;96698.03;;;4.48;100.00
6668;BME280;3370;47.712;9.082;2022-11-20T02:08:21;96696.34;;;4.48;99.34
6668;BME280;3370;47.712;9.082;2022-11-20T02:10:48;96696.63;;;4.37;98.96
6668;BME280;3370;47.712;9.082;2022-11-20T02:13:14;96697.19;;;4.49;98.15
6668;BME280;3370;47.712;9.082;2022-11-20T02:16:00;96699.91;;;4.43;98.25
6668;BME280;3370;47.712;9.082;2022-11-20T02:18:26;96703.38;;;4.38;98.94
6668;BME280;3370;47.712;9.082;2022-11-20T02:21:19;96709.66;;;4.25;99.50
6668;BME280;3370;47.712;9.082;2022-11-20T02:24:03;96703.03;;;4.19;99.55
6668;BME280;3370;47.712;9.082;2022-11-20T02:29:10;96712.22;;;4.25;100.00
6668;BME280;3370;47.712;9.082;2022-11-20T02:31:42;96711.50;;;4.20;100.00
6668;BME280;3370;47.712;9.082;2022-11-20T02:34:09;96707.06;;;4.28;100.00
6668;BME280;3370;47.712;9.082;2022-11-20T02:36:36;96705.22;;;4.33;100.00
6668;BME280;3370;47.712;9.082;2022-11-20T02:39:04;96700.19;;;4.32;99.38
6668;BME280;3370;47.712;9.082;2022-11-20T02:41:36;96713.91;;;4.26;99.20
6668;BME280;3370;47.712;9.082;2022-11-20T02:44:03;96702.91;;;4.24;99.29
6668;BME280;3370;47.712;9.082;2022-11-20T02:46:29;96700.41;;;4.22;100.00
6668;BME280;3370;47.712;9.082;2022-11-20T02:48:56;96695.44;;;4.18;100.00
6668;BME280;3370;47.712;9.082;2022-11-20T02:51:22;96695.59;;;4.12;100.00
6668;BME280;3370;47.712;9.082;2022-11-20T02:53:48;96698.69;;;4.23;100.00
6668;BME280;3370;47.712;9.082;2022-11-20T02:56:14;96696.94;;;4.25;100.00
6668;BME280;3370;47.712;9.082;2022-11-20T02:58:41;96700.34;;;4.24;99.02
6668;BME280;3370;47.712;9.082;2022-11-20T03:01:06;96701.97;;;4.28;98.07
6668;BME280;3370;47.712;9.082;2022-11-20T03:03:32;96700.97;;;4.34;97.29
6668;BME280;3370;47.712;9.082;2022-11-20T03:06:01;96696.91;;;4.27;99.13
6668;BME280;3370;47.712;9.082;2022-11-20T03:08:27;96697.53;;;4.35;98.79
6668;BME280;3370;47.712;9.082;2022-11-20T03:10:53;96690.66;;;4.38;98.84
6668;BME280;3370;47.712;9.082;2022-11-20T03:13:19;96695.75;;;4.38;98.63
6668;BME280;3370;47.712;9.082;2022-11-20T03:15:45;96698.00;;;4.49;96.02
6668;BME280;3370;47.712;9.082;2022-11-20T03:18:11;96693.91;;;4.44;97.77
6668;BME280;3370;47.712;9.082;2022-11-20T03:20:39;96687.28;;;4.38;98.64
6668;BME280;3370;47.712;9.082;2022-11-20T03:23:05;96698.53;;;4.29;98.94
6668;BME280;3370;47.712;9.082;2022-11-20T03:25:31;96700.03;;;4.36;99.54
6668;BME280;3370;47.712;9.082;2022-11-20T03:27:57;96702.56;;;4.38;99.50
6668;BME280;3370;47.712;9.082;2022-11-20T03:30:23;96698.38;;;4.35;99.53
6668;BME280;3370;47.712;9.082;2022-11-20T03:32:48;96693.94;;;4.42;98.73
6668;BME280;3370;47.712;9.082;2022-11-20T03:35:14;96695.81;;;4.37;99.46
6668;BME280;3370;47.712;9.082;2022-11-20T03:37:40;96690.81;;;4.32;99.63
6668;BME280;3370;47.712;9.082;2022-11-20T03:40:06;96700.03;;;4.36;98.40
6668;BME280;3370;47.712;9.082;2022-11-20T03:42:33;96689.88;;;4.36;99.07
6668;BME280;3370;47.712;9.082;2022-11-20T03:45:11;96693.31;;;4.35;100.00
6668;BME280;3370;47.712;9.082;2022-11-20T03:47:37;96700.19;;;4.32;98.45
6668;BME280;3370;47.712;9.082;2022-11-20T03:50:04;96695.19;;;4.27;99.48
6668;BME280;3370;47.712;9.082;2022-11-20T03:52:30;96692.66;;;4.27;98.06
6668;BME280;3370;47.712;9.082;2022-11-20T03:54:56;96685.41;;;4.12;99.48
6668;BME280;3370;47.712;9.082;2022-11-20T03:57:22;96697.88;;;4.22;99.56
6668;BME280;3370;47.712;9.082;2022-11-20T03:59:48;96700.44;;;4.21;99.81
6668;BME280;3370;47.712;9.082;2022-11-20T04:02:14;96700.44;;;4.21;100.00
6668;BME280;3370;47.712;9.082;2022-11-20T04:04:39;96698.97;;;4.12;100.00
6668;BME280;3370;47.712;9.082;2022-11-20T04:07:05;96697.94;;;4.19;100.00
6668;BME280;3370;47.712;9.082;2022-11-20T04:09:31;96692.72;;;4.24;100.00
6668;BME280;3370;47.712;9.082;2022-11-20T04:11:57;96694.34;;;4.28;100.00
6668;BME280;3370;47.712;9.082;2022-11-20T04:14:23;96685.72;;;4.32;100.00
6668;BME280;3370;47.712;9.082;2022-11-20T04:16:49;96688.03;;;4.41;100.00
6668;BME280;3370;47.712;9.082;2022-11-20T04:19:16;96682.13;;;4.41;97.55
6668;BME280;3370;47.712;9.082;2022-11-20T04:21:43;96687.25;;;4.39;98.22
6668;BME280;3370;47.712;9.082;2022-11-20T04:24:09;96683.91;;;4.37;98.15
6668;BME280;3370;47.712;9.082;2022-11-20T04:26:39;96677.38;;;4.27;99.42
6668;BME280;3370;47.712;9.082;2022-11-20T04:29:05;96678.16;;;4.29;99.67
6668;BME280;3370;47.712;9.082;2022-11-20T04:31:34;96679.81;;;4.32;99.44
6668;BME280;3370;47.712;9.082;2022-11-20T04:34:05;96678.56;;;4.14;99.81
6668;BME280;3370;47.712;9.082;2022-11-20T04:36:33;96680.19;;;4.16;100.00
6668;BME280;3370;47.712;9.082;2022-11-20T04:39:02;96675.91;;;4.18;99.65
6668;BME280;3370;47.712;9.082;2022-11-20T04:41:32;96686.75;;;4.25;98.96
6668;BME280;3370;47.712;9.082;2022-11-20T04:44:00;96682.03;;;4.10;98.52
6668;BME280;3370;47.712;9.082;2022-11-20T04:46:33;96676.88;;;4.13;98.10
6668;BME280;3370;47.712;9.082;2022-11-20T04:48:59;96677.94;;;4.04;98.41
6668;BME280;3370;47.712;9.082;2022-11-20T04:51:25;96677.72;;;4.13;97.30
6668;BME280;3370;47.712;9.082;2022-11-20T04:53:51;96673.31;;;4.20;97.85
6668;BME280;3370;47.712;9.082;2022-11-20T04:56:17;96680.19;;;4.16;97.91
6668;BME280;3370;47.712;9.082;2022-11-20T04:58:43;96683.81;;;4.08;97.61
6668;BME280;3370;47.712;9.082;2022-11-20T05:01:16;96686.94;;;4.19;98.25
6668;BME280;3370;47.712;9.082;2022-11-20T05:03:44;96688.75;;;4.14;96.71
6668;BME280;3370;47.712;9.082;2022-11-20T05:06:13;96687.13;;;4.10;96.73
6668;BME280;3370;47.712;9.082;2022-11-20T05:08:39;96688.03;;;4.09;97.07
6668;BME280;3370;47.712;9.082;2022-11-20T05:11:12;96701.53;;;4.11;96.06
6668;BME280;3370;47.712;9.082;2022-11-20T05:13:38;96702.28;;;4.16;96.14
6668;BME280;3370;47.712;9.082;2022-11-20T05:16:11;96693.19;;;4.06;96.78
6668;BME280;3370;47.712;9.082;2022-11-20T05:18:38;96698.38;;;4.02;97.56
6668;BME280;3370;47.712;9.082;2022-11-20T05:21:05;96698.47;;;3.98;97.95
6668;BME280;3370;47.712;9.082;2022-11-20T05:23:32;96693.47;;;3.93;98.55
6668;BME280;3370;47.712;9.082;2022-11-20T05:25:59;96703.56;;;3.98;96.62
6668;BME280;3370;47.712;9.082;2022-11-20T05:28:27;96699.53;;;3.89;97.00
6668;BME280;3370;47.712;9.082;2022-11-20T05:30:54;96710.53;;;3.90;97.78
6668;BME280;3370;47.712;9.082;2022-11-20T05:33:20;96706.53;;;4.15;96.13
6668;BME280;3370;47.712;9.082;2022-11-20T05:35:46;96714.28;;;4.11;95.98
6668;BME280;3370;47.712;9.082;2022-11-20T05:38:13;96721.13;;;4.07;95.95
6668;BME280;3370;47.712;9.082;2022-11-20T05:40:39;96713.47;;;4.09;96.25
6668;BME280;3370;47.712;9.082;2022-11-20T05:43:05;96708.59;;;4.01;96.84
6668;BME280;3370;47.712;9.082;2022-11-20T05:45:31;96711.84;;;4.06;97.10
6668;BME280;3370;47.712;9.082;2022-11-20T05:48:00;96705.00;;;4.08;97.20
6668;BME280;3370;47.712;9.082;2022-11-20T05:50:27;96706.75;;;4.06;97.53
6668;BME280;3370;47.712;9.082;2022-11-20T05:52:53;96715.94;;;4.12;96.36
6668;BME280;3370;47.712;9.082;2022-11-20T05:55:19;96707.56;;;4.08;96.89
6668;BME280;3370;47.712;9.082;2022-11-20T05:57:45;96706.59;;;4.12;96.08
6668;BME280;3370;47.712;9.082;2022-11-20T06:00:12;96711.38;;;4.25;95.07
6668;BME280;3370;47.712;9.082;2022-11-20T06:02:38;96720.28;;;4.08;96.24
6668;BME280;3370;47.712;9.082;2022-11-20T06:05:04;96713.41;;;4.12;97.11
6668;BME280;3370;47.712;9.082;2022-11-20T06:07:30;96719.59;;;4.01;98.43
6668;BME280;3370;47.712;9.082;2022-11-20T06:09:56;96709.94;;;4.14;97.43
6668;BME280;3370;47.712;9.082;2022-11-20T06:12:21;96715.63;;;4.24;96.92
6668;BME280;3370;47.712;9.082;2022-11-20T06:14:47;96715.81;;;4.16;97.87
6668;BME280;3370;47.712;9.082;2022-11-20T06:17:13;96720.72;;;4.24;97.45
6668;BME280;3370;47.712;9.082;2022-11-20T06:19:39;96727.94;;;4.07;97.86
6668;BME280;3370;47.712;9.082;2022-11-20T06:22:05;96717.78;;;4.07;98.48
6668;BME280;3370;47.712;9.082;2022-11-20T06:24:30;96719.00;;;4.26;98.42
6668;BME280;3370;47.712;9.082;2022-11-20T06:26:56;96710.09;;;4.43;98.61
6668;BME280;3370;47.712;9.082;2022-11-20T06:29:22;96711.59;;;4.50;98.92
6668;BME280;3370;47.712;9.082;2022-11-20T06:31:49;96704.50;;;4.61;97.13
6668;BME280;3370;47.712;9.082;2022-11-20T06:34:14;96711.16;;;4.65;98.13
6668;BME280;3370;47.712;9.082;2022-11-20T06:36:40;96722.00;;;4.73;97.28
6668;BME280;3370;47.712;9.082;2022-11-20T06:39:06;96722.91;;;4.71;96.81
6668;BME280;3370;47.712;9.082;2022-11-20T06:41:32;96720.25;;;4.75;96.21
6668;BME280;3370;47.712;9.082;2022-11-20T06:43:58;96722.69;;;4.78;96.93
6668;BME280;3370;47.712;9.082;2022-11-20T06:46:23;96717.53;;;4.82;97.74
6668;BME280;3370;47.712;9.082;2022-11-20T06:48:50;96726.63;;;4.90;95.90
6668;BME280;3370;47.712;9.082;2022-11-20T06:51:16;96727.31;;;4.97;96.15
6668;BME280;3370;47.712;9.082;2022-11-20T06:53:42;96731.66;;;4.93;95.78
6668;BME280;3370;47.712;9.082;2022-11-20T06:56:08;96738.25;;;5.01;95.65
6668;BME280;3370;47.712;9.082;2022-11-20T06:58:35;96733.44;;;4.90;94.47
6668;BME280;3370;47.712;9.082;2022-11-20T07:01:07;96740.16;;;4.92;94.10
6668;BME280;3370;47.712;9.082;2022-11-20T07:03:35;96741.09;;;4.90;95.03
6668;BME280;3370;47.712;9.082;2022-11-20T07:06:01;96745.56;;;4.80;95.14
6668;BME280;3370;47.712;9.082;2022-11-20T07:08:28;96748.09;;;4.82;93.59
6668;BME280;3370;47.712;9.082;2022-11-20T07:11:01;96746.66;;;4.71;93.66
6668;BME280;3370;47.712;9.082;2022-11-20T07:13:28;96747.59;;;4.69;92.96
6668;BME280;3370;47.712;9.082;2022-11-20T07:15:55;96747.47;;;4.73;94.02
6668;BME280;3370;47.712;9.082;2022-11-20T07:18:24;96755.91;;;4.75;95.26
6668;BME280;3370;47.712;9.082;2022-11-20T07:20:50;96753.22;;;4.80;94.65
6668;BME280;3370;47.712;9.082;2022-11-20T07:23:15;96756.63;;;4.80;95.47
6668;BME280;3370;47.712;9.082;2022-11-20T07:25:41;96750.63;;;4.82;94.65
6668;BME280;3370;47.712;9.082;2022-11-20T07:28:07;96753.25;;;4.78;95.13
6668;BME280;3370;47.712;9.082;2022-11-20T07:30:33;96753.19;;;4.82;95.38
6668;BME280;3370;47.712;9.082;2022-11-20T07:32:59;96765.81;;;4.86;94.35
6668;BME280;3370;47.712;9.082;2022-11-20T07:35:25;96767.50;;;4.86;94.39
6668;BME280;3370;47.712;9.082;2022-11-20T07:37:51;96765.88;;;4.83;93.77
6668;BME280;3370;47.712;9.082;2022-11-20T07:40:17;96770.16;;;4.83;94.88
6668;BME280;3370;47.712;9.082;2022-11-20T07:42:54;96770.06;;;4.86;94.74
6668;BME280;3370;47.712;9.082;2022-11-20T07:45:23;96765.59;;;4.94;94.09
6668;BME280;3370;47.712;9.082;2022-11-20T07:47:50;96763.00;;;4.95;93.84
6668;BME280;3370;47.712;9.082;2022-11-20T07:50:16;96761.13;;;5.02;92.75
6668;BME280;3370;47.712;9.082;2022-11-20T07:52:43;96766.84;;;5.10;92.89
6668;BME280;3370;47.712;9.082;2022-11-20T07:55:09;96770.94;;;5.16;92.73
6668;BME280;3370;47.712;9.082;2022-11-20T07:57:36;96772.03;;;5.07;92.59
6668;BME280;3370;47.712;9.082;2022-11-20T08:00:03;96772.66;;;5.15;92.62
6668;BME280;3370;47.712;9.082;2022-11-20T08:02:29;96773.63;;;5.11;92.72
6668;BME280;3370;47.712;9.082;2022-11-20T08:04:55;96772.91;;;5.06;90.45
6668;BME280;3370;47.712;9.082;2022-11-20T08:07:21;96769.63;;;5.03;91.65
6668;BME280;3370;47.712;9.082;2022-11-20T08:09:47;96777.00;;;5.12;90.83
6668;BME280;3370;47.712;9.082;2022-11-20T08:12:20;96772.41;;;5.25;90.77
6668;BME280;3370;47.712;9.082;2022-11-20T08:15:12;96772.31;;;5.28;90.99
6668;BME280;3370;47.712;9.082;2022-11-20T08:17:38;96770.44;;;5.33;90.58
6668;BME280;3370;47.712;9.082;2022-11-20T08:20:04;96780.59;;;5.34;89.59
6668;BME280;3370;47.712;9.082;2022-11-20T08:22:30;96784.34;;;5.23;89.96
6668;BME280;3370;47.712;9.082;2022-11-20T08:24:56;96781.50;;;5.33;89.40
6668;BME280;3370;47.712;9.082;2022-11-20T08:27:22;96784.00;;;5.35;89.39
6668;BME280;3370;47.712;9.082;2022-11-20T08:29:47;96789.88;;;5.38;88.28
6668;BME280;3370;47.712;9.082;2022-11-20T08:32:13;96786.25;;;5.46;88.54
6668;BME280;3370;47.712;9.082;2022-11-20T08:34:39;96779.94;;;5.57;88.91
6668;BME280;3370;47.712;9.082;2022-11-20T08:37:05;96792.78;;;5.54;88.46
6668;BME280;3370;47.712;9.082;2022-11-20T08:39:31;96784.66;;;5.71;89.67
6668;BME280;3370;47.712;9.082;2022-11-20T08:41:57;96787.00;;;5.78;89.47
6668;BME280;3370;47.712;9.082;2022-11-20T08:44:23;96785.69;;;5.66;88.99
6668;BME280;3370;47.712;9.082;2022-11-20T08:46:49;96788.03;;;5.72;88.58
6668;BME280;3370;47.712;9.082;2022-11-20T08:49:15;96779.59;;;5.70;88.75
6668;BME280;3370;47.712;9.082;2022-11-20T08:51:42;96774.06;;;5.55;87.06
6668;BME280;3370;47.712;9.082;2022-11-20T08:54:08;96783.22;;;5.63;88.40
6668;BME280;3370;47.712;9.082;2022-11-20T08:56:34;96778.97;;;5.62;85.40
6668;BME280;3370;47.712;9.082;2022-11-20T08:59:00;96783.00;;;5.69;87.00
6668;BME280;3370;47.712;9.082;2022-11-20T09:01:27;96786.47;;;5.68;85.65
6668;BME280;3370;47.712;9.082;2022-11-20T09:03:56;96788.91;;;5.71;85.36
6668;BME280;3370;47.712;9.082;2022-11-20T09:06:25;96788.03;;;5.72;84.71
6668;BME280;3370;47.712;9.082;2022-11-20T09:08:53;96786.97;;;5.79;86.81
6668;BME280;3370;47.712;9.082;2022-11-20T09:11:19;96790.75;;;5.95;87.65
6668;BME280;3370;47.712;9.082;2022-11-20T09:13:45;96782.44;;;5.87;85.40
6668;BME280;3370;47.712;9.082;2022-11-20T09:16:11;96789.94;;;5.93;87.34
6668;BME280;3370;47.712;9.082;2022-11-20T09:18:37;96783.88;;;5.98;87.52
6668;BME280;3370;47.712;9.082;2022-11-20T09:21:10;96780.78;;;5.86;85.54
6668;BME280;3370;47.712;9.082;2022-11-20T09:23:37;96790.19;;;5.86;84.67
6668;BME280;3370;47.712;9.082;2022-11-20T09:26:11;96778.47;;;5.79;83.87
6668;BME280;3370;47.712;9.082;2022-11-20T09:28:38;96779.72;;;5.93;84.05
6668;BME280;3370;47.712;9.082;2022-11-20T09:31:09;96768.47;;;6.01;82.63
6668;BME280;3370;47.712;9.082;2022-11-20T09:33:35;96777.38;;;6.16;84.38
6668;BME280;3370;47.712;9.082;2022-11-20T09:36:01;96777.28;;;6.19;82.97
6668;BME280;3370;47.712;9.082;2022-11-20T09:38:27;96775.16;;;6.05;82.63
6668;BME280;3370;47.712;9.082;2022-11-20T09:41:06;96767.25;;;6.12;82.63
6668;BME280;3370;47.712;9.082;2022-11-20T09:44:14;96770.22;;;6.25;84.23
6668;BME280;3370;47.712;9.082;2022-11-20T09:47:07;96770.09;;;6.30;83.86
6668;BME280;3370;47.712;9.082;2022-11-20T09:50:56;96773.34;;;6.35;82.61
6668;BME280;3370;47.712;9.082;2022-11-20T09:56:04;96774.03;;;6.40;82.73
6668;BME280;3370;47.712;9.082;2022-11-20T09:58:51;96781.06;;;6.33;81.37
6668;BME280;3370;47.712;9.082;2022-11-20T10:01:20;96787.63;;;6.41;81.04
6668;BME280;3370;47.712;9.082;2022-11-20T10:04:16;96790.56;;;6.28;80.99
6668;BME280;3370;47.712;9.082;2022-11-20T10:07:23;96787.03;;;6.32;79.94
6668;BME280;3370;47.712;9.082;2022-11-20T10:09:55;96784.34;;;6.37;81.33
6668;BME280;3370;47.712;9.082;2022-11-20T10:25:18;96782.53;;;6.41;81.65
6668;BME280;3370;47.712;9.082;2022-11-20T10:28:30;96775.91;;;6.35;82.05
6668;BME280;3370;47.712;9.082;2022-11-20T10:31:06;96776.22;;;6.51;83.36
6668;BME280;3370;47.712;9.082;2022-11-20T10:33:39;96765.13;;;6.52;82.52
6668;BME280;3370;47.712;9.082;2022-11-20T10:39:01;96781.19;;;6.29;78.92
6668;BME280;3370;47.712;9.082;2022-11-20T10:41:35;96780.69;;;6.18;79.42
6668;BME280;3370;47.712;9.082;2022-11-20T10:44:12;96779.28;;;6.36;80.76
6668;BME280;3370;47.712;9.082;2022-11-20T10:46:46;96771.81;;;6.29;81.21
6668;BME280;3370;47.712;9.082;2022-11-20T10:49:18;96778.75;;;6.26;80.36
6668;BME280;3370;47.712;9.082;2022-11-20T11:01:18;96757.72;;;6.18;80.94
6668;BME280;3370;47.712;9.082;2022-11-20T11:03:44;96760.97;;;6.23;82.79
6668;BME280;3370;47.712;9.082;2022-11-20T11:06:36;96759.00;;;6.31;83.08
6668;BME280;3370;47.712;9.082;2022-11-20T11:09:16;96760.53;;;6.37;83.19
6668;BME280;3370;47.712;9.082;2022-11-20T11:11:44;96756.81;;;6.45;82.29
6668;BME280;3370;47.712;9.082;2022-11-20T11:14:15;96757.19;;;6.35;80.37
6668;BME280;3370;47.712;9.082;2022-11-20T11:16:56;96749.66;;;6.30;80.55
6668;BME280;3370;47.712;9.082;2022-11-20T11:19:23;96748.59;;;6.37;79.58
6668;BME280;3370;47.712;9.082;2022-11-20T11:21:55;96755.50;;;6.33;81.66
6668;BME280;3370;47.712;9.082;2022-11-20T11:24:23;96745.28;;;6.33;82.00
6668;BME280;3370;47.712;9.082;2022-11-20T11:27:13;96741.97;;;6.31;80.27
6668;BME280;3370;47.712;9.082;2022-11-20T11:29:42;96740.88;;;6.39;82.01
6668;BME280;3370;47.712;9.082;2022-11-20T11:32:13;96739.53;;;6.27;81.48
6668;BME280;3370;47.712;9.082;2022-11-20T11:34:40;96739.66;;;6.24;83.78
6668;BME280;3370;47.712;9.082;2022-11-20T11:37:19;96731.06;;;6.26;83.69
6668;BME280;3370;47.712;9.082;2022-11-20T11:39:52;96727.91;;;6.18;83.20
6668;BME280;3370;47.712;9.082;2022-11-20T11:42:19;96730.75;;;6.09;82.86
6668;BME280;3370;47.712;9.082;2022-11-20T11:44:47;96722.25;;;6.10;83.44
6668;BME280;3370;47.712;9.082;2022-11-20T11:53:09;96716.97;;;6.14;82.86
6668;BME280;3370;47.712;9.082;2022-11-20T11:56:03;96721.19;;;6.16;84.24
6668;BME280;3370;47.712;9.082;2022-11-20T11:58:47;96711.50;;;6.25;84.16
6668;BME280;3370;47.712;9.082;2022-11-20T12:07:22;96709.84;;;6.24;82.60
6668;BME280;3370;47.712;9.082;2022-11-20T12:09:53;96713.06;;;6.31;83.41
6668;BME280;3370;47.712;9.082;2022-11-20T12:12:27;96704.81;;;6.48;82.94
6668;BME280;3370;47.712;9.082;2022-11-20T12:14:56;96703.72;;;6.55;81.40
6668;BME280;3370;47.712;9.082;2022-11-20T12:17:23;96694.41;;;7.01;80.24
6668;BME280;3370;47.712;9.082;2022-11-20T12:19:50;96695.59;;;9.25;69.28
6668;BME280;3370;47.712;9.082;2022-11-20T12:25:33;96687.78;;;11.51;60.88
6668;BME280;3370;47.712;9.082;2022-11-20T12:28:41;96686.50;;;9.36;65.99
6668;BME280;3370;47.712;9.082;2022-11-20T12:31:52;96681.94;;;9.97;64.79
6668;BME280;3370;47.712;9.082;2022-11-20T12:34:43;96681.66;;;8.53;68.00
6668;BME280;3370;47.712;9.082;2022-11-20T12:43:26;96655.16;;;13.29;54.51
6668;BME280;3370;47.712;9.082;2022-11-20T12:46:46;96657.03;;;11.32;58.58
6668;BME280;3370;47.712;9.082;2022-11-20T12:49:52;96669.25;;;9.21;63.85
6668;BME280;3370;47.712;9.082;2022-11-20T12:52:53;96671.69;;;8.47;68.50
6668;BME280;3370;47.712;9.082;2022-11-20T12:58:39;96655.09;;;7.92;70.32
6668;BME280;3370;47.712;9.082;2022-11-20T13:01:42;96661.06;;;7.93;71.07
6668;BME280;3370;47.712;9.082;2022-11-20T13:07:13;96649.41;;;7.85;71.43
6668;BME280;3370;47.712;9.082;2022-11-20T13:09:49;96647.63;;;7.87;72.71
6668;BME280;3370;47.712;9.082;2022-11-20T13:13:00;96645.00;;;7.89;72.12
6668;BME280;3370;47.712;9.082;2022-11-20T13:18:10;96628.94;;;8.06;71.08
6668;BME280;3370;47.712;9.082;2022-11-20T13:20:46;96632.78;;;8.76;68.29
6668;BME280;3370;47.712;9.082;2022-11-20T13:23:24;96623.09;;;9.38;66.27
6668;BME280;3370;47.712;9.082;2022-11-20T13:28:29;96607.41;;;10.99;60.95
6668;BME280;3370;47.712;9.082;2022-11-20T13:30:57;96609.56;;;10.41;61.67
6668;BME280;3370;47.712;9.082;2022-11-20T13:33:34;96612.41;;;9.30;64.95
6668;BME280;3370;47.712;9.082;2022-11-20T13:36:19;96622.06;;;9.43;65.72
6668;BME280;3370;47.712;9.082;2022-11-20T13:38:56;96614.47;;;10.11;62.46
6668;BME280;3370;47.712;9.082;2022-11-20T13:41:29;96604.94;;;10.97;60.12
6668;BME280;3370;47.712;9.082;2022-11-20T13:46:43;96613.84;;;12.59;54.92
6668;BME280;3370;47.712;9.082;2022-11-20T13:49:37;96606.75;;;13.60;51.14
6668;BME280;3370;47.712;9.082;2022-11-20T13:52:20;96609.00;;;12.96;52.81
6668;BME280;3370;47.712;9.082;2022-11-20T13:55:21;96602.16;;;11.94;53.68
6668;BME280;3370;47.712;9.082;2022-11-20T14:00:25;96592.03;;;11.91;55.48
6668;BME280;3370;47.712;9.082;2022-11-20T14:03:12;96605.34;;;9.88;60.47
6668;BME280;3370;47.712;9.082;2022-11-20T14:05:51;96604.13;;;9.60;62.36
6668;BME280;3370;47.712;9.082;2022-11-20T14:08:39;96604.41;;;9.36;63.39
6668;BME280;3370;47.712;9.082;2022-11-20T14:11:18;96608.88;;;8.95;64.90
6668;BME280;3370;47.712;9.082;2022-11-20T14:14:18;96603.00;;;8.74;65.03
6668;BME280;3370;47.712;9.082;2022-11-20T14:16:45;96592.69;;;8.36;65.96
6668;BME280;3370;47.712;9.082;2022-11-20T14:24:38;96581.19;;;7.84;68.16
6668;BME280;3370;47.712;9.082;2022-11-20T14:27:04;96581.06;;;7.87;69.56
6668;BME280;3370;47.712;9.082;2022-11-20T14:29:34;96573.88;;;8.16;67.99
6668;BME280;3370;47.712;9.082;2022-11-20T14:32:01;96569.72;;;8.53;66.98
6668;BME280;3370;47.712;9.082;2022-11-20T14:34:35;96572.78;;;8.61;66.41
6668;BME280;3370;47.712;9.082;2022-11-20T14:37:06;96570.56;;;8.73;65.36
6668;BME280;3370;47.712;9.082;2022-11-20T14:39:41;96563.88;;;8.31;66.93
6668;BME280;3370;47.712;9.082;2022-11-20T14:42:26;96567.81;;;8.38;68.03
6668;BME280;3370;47.712;9.082;2022-11-20T14:44:59;96571.16;;;8.19;67.82
6668;BME280;3370;47.712;9.082;2022-11-20T14:47:29;96571.72;;;8.07;68.65
6668;BME280;3370;47.712;9.082;2022-11-20T14:49:57;96575.28;;;7.82;70.09
6668;BME280;3370;47.712;9.082;2022-11-20T14:52:27;96584.81;;;7.58;69.81
6668;BME280;3370;47.712;9.082;2022-11-20T14:54:56;96584.66;;;7.41;69.87
6668;BME280;3370;47.712;9.082;2022-11-20T14:57:34;96580.91;;;7.49;70.70
6668;BME280;3370;47.712;9.082;2022-11-20T15:02:49;96565.66;;;7.46;70.59
6668;BME280;3370;47.712;9.082;2022-11-20T15:05:18;96559.16;;;7.60;70.49
6668;BME280;3370;47.712;9.082;2022-11-20T15:08:07;96558.91;;;7.45;70.75
6668;BME280;3370;47.712;9.082;2022-11-20T15:10:33;96552.09;;;7.44;71.54
6668;BME280;3370;47.712;9.082;2022-11-20T15:13:12;96553.78;;;7.45;70.58
6668;BME280;3370;47.712;9.082;2022-11-20T15:15:49;96549.22;;;7.32;70.47